createdAt,value
2023-01-01T00:00:58.059Z,14.187
2023-01-01T00:03:57.228Z,14.375
2023-01-01T00:06:57.657Z,14.375
2023-01-01T00:09:57.503Z,14.75
2023-01-01T00:12:57.347Z,14.875
2023-01-01T00:15:57.885Z,15.125
2023-01-01T00:18:57.376Z,15.125
2023-01-01T00:21:57.938Z,14.562
2023-01-01T00:24:57.175Z,14.625
2023-01-01T00:27:57.262Z,14.875
2023-01-01T00:30:58.230Z,14.875
2023-01-01T00:33:57.723Z,14.875
2023-01-01T00:36:57.118Z,14.75
2023-01-01T00:39:57.508Z,14.5
2023-01-01T00:42:57.700Z,15.062
2023-01-01T00:45:57.495Z,14.875
2023-01-01T00:48:56.901Z,14.937
2023-01-01T00:51:56.827Z,14.75
2023-01-01T00:54:56.554Z,14.437
2023-01-01T00:57:57.045Z,14.375
2023-01-01T01:00:57.912Z,14.625
2023-01-01T01:03:57.424Z,14.437
2023-01-01T01:06:57.765Z,14.125
2023-01-01T01:09:58.140Z,14.062
2023-01-01T01:12:57.719Z,14.187
2023-01-01T01:15:58.081Z,14.125
2023-01-01T01:18:57.157Z,14.062
2023-01-01T01:21:57.346Z,14.437
2023-01-01T01:24:57.727Z,14.375
2023-01-01T01:27:57.256Z,14.312
2023-01-01T01:30:57.390Z,14.562
2023-01-01T01:33:57.748Z,14.375
2023-01-01T01:36:56.783Z,14.187
2023-01-01T01:39:57.557Z,14.187
2023-01-01T01:42:57.704Z,13.875
2023-01-01T01:45:58.119Z,13.875
2023-01-01T01:48:56.770Z,13.812
2023-01-01T01:51:57.731Z,13.875
2023-01-01T01:54:56.807Z,13.812
2023-01-01T01:57:57.196Z,13.812
2023-01-01T02:00:57.629Z,13.375
2023-01-01T02:03:58.404Z,13.375
2023-01-01T02:06:57.402Z,13.25
2023-01-01T02:09:57.705Z,13.25
2023-01-01T02:12:57.045Z,13.562
2023-01-01T02:15:57.320Z,13.562
2023-01-01T02:18:57.136Z,13.437
2023-01-01T02:21:57.974Z,13.625
2023-01-01T02:24:56.963Z,14.25
2023-01-01T02:27:57.150Z,13.875
2023-01-01T02:30:58.251Z,13.875
2023-01-01T02:33:57.579Z,13.625
2023-01-01T02:36:57.018Z,13.5
2023-01-01T02:39:57.602Z,13.812
2023-01-01T02:42:58.034Z,13.812
2023-01-01T02:45:57.818Z,12.687
2023-01-01T02:48:58.098Z,12.687
2023-01-01T02:51:57.278Z,12.0
2023-01-01T02:54:57.233Z,11.125
2023-01-01T02:57:58.108Z,10.875
2023-01-01T03:00:57.778Z,10.75
2023-01-01T03:03:56.922Z,10.562
2023-01-01T03:06:57.128Z,10.25
2023-01-01T03:09:57.517Z,10.562
2023-01-01T03:12:58.352Z,10.437
2023-01-01T03:15:57.805Z,10.312
2023-01-01T03:18:56.889Z,10.312
2023-01-01T03:21:57.432Z,10.437
2023-01-01T03:24:57.723Z,10.312
2023-01-01T03:27:57.402Z,10.25
2023-01-01T03:30:57.699Z,10.187
2023-01-01T03:33:57.332Z,10.125
2023-01-01T03:36:57.568Z,9.875
2023-01-01T03:39:57.044Z,9.875
2023-01-01T03:42:57.425Z,9.812
2023-01-01T03:45:57.536Z,9.812
2023-01-01T03:49:03.012Z,10.062
2023-01-01T03:51:57.120Z,10.062
2023-01-01T03:54:59.334Z,10.0
2023-01-01T03:57:57.669Z,10.062
2023-01-01T04:00:57.257Z,9.937
2023-01-01T04:03:57.225Z,9.812
2023-01-01T04:06:57.411Z,9.812
2023-01-01T04:09:57.089Z,9.875
2023-01-01T04:12:57.222Z,9.937
2023-01-01T04:15:58.409Z,10.125
2023-01-01T04:18:57.646Z,10.125
2023-01-01T04:21:57.079Z,9.875
2023-01-01T04:24:59.700Z,9.687
2023-01-01T04:27:57.243Z,9.5
2023-01-01T04:33:57.380Z,9.5
2023-01-01T04:36:57.030Z,9.812
2023-01-01T04:39:57.362Z,9.812
2023-01-01T04:42:57.686Z,10.312
2023-01-01T04:45:57.268Z,10.312
2023-01-01T04:48:57.025Z,10.75
2023-01-01T04:51:57.280Z,11.25
2023-01-01T04:54:57.058Z,10.812
2023-01-01T04:57:57.585Z,10.812
2023-01-01T05:00:58.091Z,10.812
2023-01-01T05:03:58.135Z,10.687
2023-01-01T05:06:57.436Z,10.875
2023-01-01T05:09:57.862Z,11.187
2023-01-01T05:12:57.426Z,10.875
2023-01-01T05:15:57.125Z,10.875
2023-01-01T05:18:57.148Z,10.687
2023-01-01T05:21:57.103Z,11.125
2023-01-01T05:24:57.438Z,10.625
2023-01-01T05:27:57.781Z,10.437
2023-01-01T05:30:57.532Z,9.875
2023-01-01T05:33:57.051Z,9.875
2023-01-01T05:36:57.795Z,9.687
2023-01-01T05:39:57.383Z,9.687
2023-01-01T05:42:57.357Z,9.5
2023-01-01T05:45:58.257Z,10.0
2023-01-01T05:48:57.521Z,10.75
2023-01-01T05:51:57.542Z,10.625
2023-01-01T05:54:56.842Z,9.937
2023-01-01T05:57:56.638Z,9.687
2023-01-01T06:00:57.212Z,9.562
2023-01-01T06:03:57.236Z,9.437
2023-01-01T06:06:57.319Z,9.5
2023-01-01T06:09:57.180Z,9.437
2023-01-01T06:12:57.860Z,9.437
2023-01-01T06:15:57.946Z,9.312
2023-01-01T06:18:57.918Z,9.312
2023-01-01T06:21:57.134Z,8.937
2023-01-01T06:24:57.010Z,9.062
2023-01-01T06:27:57.476Z,9.0
2023-01-01T06:30:57.088Z,9.125
2023-01-01T06:33:57.644Z,9.187
2023-01-01T06:37:01.453Z,9.187
2023-01-01T06:39:57.391Z,9.187
2023-01-01T06:42:57.422Z,9.437
2023-01-01T06:45:57.843Z,9.625
2023-01-01T06:48:56.822Z,10.687
2023-01-01T06:51:57.088Z,11.312
2023-01-01T06:54:57.455Z,11.0
2023-01-01T06:57:57.673Z,11.562
2023-01-01T07:01:01.204Z,11.687
2023-01-01T07:03:58.028Z,11.812
2023-01-01T07:06:57.803Z,11.875
2023-01-01T07:09:57.948Z,12.0
2023-01-01T07:12:57.620Z,12.062
2023-01-01T07:15:57.363Z,12.125
2023-01-01T07:18:57.831Z,12.375
2023-01-01T07:21:57.136Z,12.312
2023-01-01T07:24:57.370Z,12.312
2023-01-01T07:27:58.014Z,12.312
2023-01-01T07:30:57.894Z,12.125
2023-01-01T07:33:57.989Z,11.875
2023-01-01T07:36:57.516Z,12.5
2023-01-01T07:39:57.871Z,12.062
2023-01-01T07:42:57.777Z,12.25
2023-01-01T07:45:57.650Z,12.312
2023-01-01T07:48:57.990Z,12.625
2023-01-01T07:51:57.522Z,12.5
2023-01-01T07:54:57.047Z,13.187
2023-01-01T07:57:57.600Z,13.187
2023-01-01T08:00:57.852Z,13.25
2023-01-01T08:03:57.487Z,13.187
2023-01-01T08:06:57.676Z,13.562
2023-01-01T08:09:57.741Z,13.687
2023-01-01T08:12:57.475Z,13.687
2023-01-01T08:15:57.776Z,13.375
2023-01-01T08:18:57.132Z,13.812
2023-01-01T08:21:57.590Z,13.937
2023-01-01T08:24:57.226Z,13.937
2023-01-01T08:27:57.685Z,14.125
2023-01-01T08:30:57.703Z,14.25
2023-01-01T08:33:57.120Z,14.0
2023-01-01T08:36:57.311Z,14.25
2023-01-01T08:39:57.106Z,14.125
2023-01-01T08:42:57.751Z,14.125
2023-01-01T08:45:57.207Z,14.312
2023-01-01T08:48:57.050Z,14.312
2023-01-01T08:51:57.772Z,14.062
2023-01-01T08:54:58.118Z,14.062
2023-01-01T08:57:57.043Z,14.125
2023-01-01T09:00:57.978Z,14.0
2023-01-01T09:03:57.444Z,14.062
2023-01-01T09:06:57.707Z,14.125
2023-01-01T09:09:58.065Z,14.125
2023-01-01T09:12:57.916Z,14.062
2023-01-01T09:15:57.910Z,13.812
2023-01-01T09:18:57.766Z,14.125
2023-01-01T09:21:57.103Z,14.187
2023-01-01T09:24:58.068Z,14.25
2023-01-01T09:27:57.456Z,14.437
2023-01-01T09:30:58.007Z,14.0
2023-01-01T09:33:57.366Z,14.187
2023-01-01T09:36:57.972Z,14.375
2023-01-01T09:39:57.033Z,14.375
2023-01-01T09:42:57.777Z,14.687
2023-01-01T09:45:57.541Z,14.812
2023-01-01T09:48:57.292Z,14.625
2023-01-01T09:51:58.076Z,14.5
2023-01-01T09:54:56.983Z,14.25
2023-01-01T09:57:57.809Z,14.312
2023-01-01T10:00:57.879Z,14.312
2023-01-01T10:04:02.408Z,14.312
2023-01-01T10:06:57.869Z,13.625
2023-01-01T10:09:58.319Z,13.187
2023-01-01T10:12:57.003Z,12.937
2023-01-01T10:15:57.763Z,12.812
2023-01-01T10:18:57.588Z,12.75
2023-01-01T10:21:57.079Z,13.437
2023-01-01T10:24:57.565Z,13.437
2023-01-01T10:27:59.706Z,13.25
2023-01-01T10:30:57.862Z,13.125
2023-01-01T10:33:57.452Z,12.937
2023-01-01T10:36:57.854Z,13.062
2023-01-01T10:39:57.463Z,12.937
2023-01-01T10:42:57.745Z,13.187
2023-01-01T10:45:57.819Z,13.375
2023-01-01T10:48:57.352Z,13.687
2023-01-01T10:51:57.207Z,13.937
2023-01-01T10:54:58.042Z,14.312
2023-01-01T10:57:57.723Z,14.25
2023-01-01T11:00:57.901Z,14.25
2023-01-01T11:04:15.770Z,14.562
2023-01-01T11:06:57.624Z,14.375
2023-01-01T11:10:03.520Z,14.375
2023-01-01T11:13:05.688Z,14.687
2023-01-01T11:15:57.041Z,14.687
2023-01-01T11:18:57.947Z,15.062
2023-01-01T11:21:58.041Z,15.187
2023-01-01T11:24:57.839Z,15.25
2023-01-01T11:27:56.844Z,15.5
2023-01-01T11:30:57.832Z,15.625
2023-01-01T11:33:57.003Z,15.562
2023-01-01T11:36:58.172Z,15.625
2023-01-01T11:39:57.592Z,16.062
2023-01-01T11:42:58.261Z,16.125
2023-01-01T11:45:59.047Z,16.25
2023-01-01T11:48:57.497Z,16.437
2023-01-01T11:51:57.488Z,17.0
2023-01-01T11:54:57.735Z,16.562
2023-01-01T11:57:57.396Z,16.687
2023-01-01T12:00:58.362Z,16.875
2023-01-01T12:03:57.713Z,16.562
2023-01-01T12:06:57.526Z,17.312
2023-01-01T12:09:57.525Z,17.062
2023-01-01T12:12:58.173Z,17.5
2023-01-01T12:15:57.998Z,17.312
2023-01-01T12:18:57.931Z,17.312
2023-01-01T12:21:58.198Z,17.312
2023-01-01T12:24:57.034Z,16.875
2023-01-01T12:27:57.556Z,16.875
2023-01-01T12:30:57.326Z,17.312
2023-01-01T12:33:57.496Z,17.312
2023-01-01T12:36:57.319Z,16.75
2023-01-01T12:39:57.625Z,16.687
2023-01-01T12:42:57.691Z,16.625
2023-01-01T12:45:58.436Z,16.75
2023-01-01T12:48:57.901Z,16.625
2023-01-01T12:51:57.824Z,16.875
2023-01-01T12:54:57.079Z,17.0
2023-01-01T12:57:57.414Z,17.0
2023-01-01T13:00:57.940Z,17.125
2023-01-01T13:03:57.724Z,17.187
2023-01-01T13:06:56.964Z,17.0
2023-01-01T13:09:57.897Z,17.062
2023-01-01T13:12:57.407Z,17.125
2023-01-01T13:15:57.079Z,16.562
2023-01-01T13:19:02.660Z,16.437
2023-01-01T13:21:58.080Z,16.0
2023-01-01T13:24:58.309Z,16.0
2023-01-01T13:27:58.162Z,15.875
2023-01-01T13:30:57.578Z,15.625
2023-01-01T13:33:57.392Z,15.5
2023-01-01T13:36:57.533Z,15.5
2023-01-01T13:39:58.312Z,15.562
2023-01-01T13:43:02.324Z,15.562
2023-01-01T13:46:12.932Z,15.562
2023-01-01T13:49:01.336Z,15.25
2023-01-01T13:52:06.019Z,15.312
2023-01-01T13:54:57.455Z,15.375
2023-01-01T13:57:57.601Z,15.125
2023-01-01T14:00:57.409Z,14.875
2023-01-01T14:03:57.652Z,14.812
2023-01-01T14:06:57.117Z,14.625
2023-01-01T14:09:57.562Z,14.625
2023-01-01T14:12:57.813Z,14.437
2023-01-01T14:15:57.575Z,14.375
2023-01-01T14:18:57.058Z,14.312
2023-01-01T14:21:57.925Z,14.062
2023-01-01T14:24:57.907Z,14.375
2023-01-01T14:27:58.644Z,14.375
2023-01-01T14:30:57.263Z,14.375
2023-01-01T14:33:57.536Z,14.312
2023-01-01T14:36:57.507Z,14.25
2023-01-01T14:39:58.138Z,14.125
2023-01-01T14:42:57.608Z,14.125
2023-01-01T14:45:58.054Z,13.875
2023-01-01T14:48:57.315Z,13.812
2023-01-01T14:51:57.283Z,13.812
2023-01-01T14:54:57.241Z,13.687
2023-01-01T14:57:58.340Z,13.562
2023-01-01T15:00:58.241Z,13.5
2023-01-01T15:03:56.975Z,13.5
2023-01-01T15:06:57.627Z,13.437
2023-01-01T15:09:57.781Z,13.5
2023-01-01T15:12:56.661Z,13.5
2023-01-01T15:15:57.781Z,13.5
2023-01-01T15:18:57.557Z,13.375
2023-01-01T15:21:57.656Z,13.187
2023-01-01T15:24:57.626Z,13.25
2023-01-01T15:27:57.481Z,13.062
2023-01-01T15:30:57.686Z,13.062
2023-01-01T15:33:57.636Z,12.875
2023-01-01T15:36:57.945Z,12.687
2023-01-01T15:39:58.349Z,12.75
2023-01-01T15:42:57.028Z,12.562
2023-01-01T15:45:57.982Z,12.562
2023-01-01T15:48:58.208Z,12.562
2023-01-01T15:51:57.327Z,12.625
2023-01-01T15:54:57.300Z,12.5
2023-01-01T15:57:57.695Z,12.562
2023-01-01T16:00:58.486Z,12.562
2023-01-01T16:03:58.024Z,12.25
2023-01-01T16:06:57.454Z,12.25
2023-01-01T16:09:58.306Z,12.312
2023-01-01T16:12:57.574Z,12.312
2023-01-01T16:15:57.547Z,12.125
2023-01-01T16:18:56.809Z,12.125
2023-01-01T16:21:57.631Z,12.062
2023-01-01T16:24:57.857Z,12.25
2023-01-01T16:27:56.675Z,12.312
2023-01-01T16:30:57.351Z,12.312
2023-01-01T16:33:58.189Z,12.562
2023-01-01T16:36:57.472Z,12.437
2023-01-01T16:39:57.860Z,12.437
2023-01-01T16:42:57.403Z,12.312
2023-01-01T16:45:57.746Z,12.25
2023-01-01T16:48:57.356Z,12.25
2023-01-01T16:51:57.059Z,12.25
2023-01-01T16:54:57.466Z,12.312
2023-01-01T16:58:20.998Z,12.625
2023-01-01T17:00:57.717Z,12.312
2023-01-01T17:03:57.457Z,12.312
2023-01-01T17:06:57.774Z,12.062
2023-01-01T17:09:58.052Z,12.0
2023-01-01T17:12:57.895Z,12.187
2023-01-01T17:15:57.766Z,12.25
2023-01-01T17:19:16.685Z,12.125
2023-01-01T17:21:57.203Z,12.125
2023-01-01T17:24:57.684Z,12.125
2023-01-01T17:27:57.834Z,12.187
2023-01-01T17:30:57.383Z,12.0
2023-01-01T17:33:57.738Z,12.0
2023-01-01T17:36:57.404Z,11.937
2023-01-01T17:39:58.355Z,11.75
2023-01-01T17:42:57.175Z,11.875
2023-01-01T17:45:58.578Z,11.875
2023-01-01T17:48:56.795Z,11.812
2023-01-01T17:51:58.147Z,11.812
2023-01-01T17:54:58.111Z,11.75
2023-01-01T17:57:57.542Z,11.875
2023-01-01T18:00:58.359Z,11.875
2023-01-01T18:03:57.336Z,11.75
2023-01-01T18:07:02.452Z,11.75
2023-01-01T18:09:57.533Z,12.0
2023-01-01T18:12:57.188Z,11.875
2023-01-01T18:15:57.543Z,11.812
2023-01-01T18:18:57.170Z,11.812
2023-01-01T18:21:57.969Z,11.875
2023-01-01T18:24:58.505Z,11.812
2023-01-01T18:27:57.965Z,11.687
2023-01-01T18:30:58.068Z,11.75
2023-01-01T18:33:57.421Z,11.75
2023-01-01T18:36:57.450Z,11.875
2023-01-01T18:39:58.802Z,11.812
2023-01-01T18:42:57.522Z,11.625
2023-01-01T18:45:57.321Z,11.75
2023-01-01T18:48:59.334Z,11.75
2023-01-01T18:51:57.146Z,11.75
2023-01-01T18:54:57.757Z,11.75
2023-01-01T18:57:58.603Z,11.687
2023-01-01T19:01:25.955Z,11.875
2023-01-01T19:03:56.937Z,11.75
2023-01-01T19:06:57.530Z,11.687
2023-01-01T19:09:59.159Z,11.562
2023-01-01T19:12:57.162Z,11.5
2023-01-01T19:15:57.263Z,11.5
2023-01-01T19:18:57.871Z,11.5
2023-01-01T19:21:57.311Z,11.687
2023-01-01T19:24:58.196Z,11.562
2023-01-01T19:27:57.907Z,11.875
2023-01-01T19:30:57.810Z,12.062
2023-01-01T19:33:58.084Z,12.125
2023-01-01T19:36:57.455Z,12.125
2023-01-01T19:39:58.086Z,12.25
2023-01-01T19:42:57.817Z,12.312
2023-01-01T19:45:57.604Z,12.062
2023-01-01T19:48:57.689Z,12.0
2023-01-01T19:51:57.560Z,12.25
2023-01-01T19:54:57.790Z,12.25
2023-01-01T19:57:57.690Z,12.062
2023-01-01T20:00:58.261Z,12.062
2023-01-01T20:03:58.305Z,11.937
2023-01-01T20:06:57.749Z,11.875
2023-01-01T20:09:57.589Z,11.812
2023-01-01T20:12:57.562Z,11.937
2023-01-01T20:15:57.605Z,11.937
2023-01-01T20:18:57.420Z,11.812
2023-01-01T20:21:57.143Z,11.875
2023-01-01T20:24:58.160Z,11.75
2023-01-01T20:27:57.177Z,11.812
2023-01-01T20:30:58.026Z,11.75
2023-01-01T20:33:57.733Z,11.75
2023-01-01T20:36:57.815Z,11.5
2023-01-01T20:39:57.677Z,11.812
2023-01-01T20:42:57.204Z,11.562
2023-01-01T20:45:57.698Z,11.625
2023-01-01T20:48:57.849Z,11.687
2023-01-01T20:51:57.545Z,11.562
2023-01-01T20:54:58.008Z,11.5
2023-01-01T20:57:57.806Z,11.437
2023-01-01T21:00:57.983Z,11.437
2023-01-01T21:03:57.327Z,11.375
2023-01-01T21:06:57.779Z,11.562
2023-01-01T21:09:58.110Z,11.5
2023-01-01T21:12:57.442Z,11.5
2023-01-01T21:15:58.243Z,11.0
2023-01-01T21:18:57.724Z,10.937
2023-01-01T21:21:57.261Z,10.937
2023-01-01T21:25:16.901Z,11.187
2023-01-01T21:27:57.602Z,11.187
2023-01-01T21:30:57.393Z,11.75
2023-01-01T21:33:57.402Z,11.875
2023-01-01T21:36:57.417Z,11.812
2023-01-01T21:39:58.035Z,11.562
2023-01-01T21:42:57.414Z,11.25
2023-01-01T21:45:57.836Z,11.25
2023-01-01T21:48:58.117Z,11.25
2023-01-01T21:51:57.357Z,10.562
2023-01-01T21:54:57.330Z,10.625
2023-01-01T21:57:57.215Z,10.812
2023-01-01T22:00:57.376Z,10.75
2023-01-01T22:03:57.780Z,10.562
2023-01-01T22:06:57.362Z,10.812
2023-01-01T22:09:57.351Z,10.812
2023-01-01T22:12:56.959Z,10.937
2023-01-01T22:15:57.524Z,10.875
2023-01-01T22:18:56.974Z,11.125
2023-01-01T22:21:57.802Z,11.125
2023-01-01T22:24:58.168Z,11.437
2023-01-01T22:27:57.223Z,11.5
2023-01-01T22:30:58.313Z,10.937
2023-01-01T22:33:58.143Z,10.875
2023-01-01T22:36:57.860Z,11.312
2023-01-01T22:39:57.137Z,11.312
2023-01-01T22:42:57.569Z,11.375
2023-01-01T22:45:58.112Z,11.062
2023-01-01T22:48:58.206Z,10.937
2023-01-01T22:51:57.428Z,10.875
2023-01-01T22:54:57.798Z,10.937
2023-01-01T22:57:57.299Z,11.0
2023-01-01T23:00:57.585Z,10.812
2023-01-01T23:03:57.278Z,10.812
2023-01-01T23:06:56.668Z,10.937
2023-01-01T23:09:57.075Z,10.687
2023-01-01T23:12:57.465Z,10.812
2023-01-01T23:15:58.139Z,10.812
2023-01-01T23:18:57.170Z,11.437
2023-01-01T23:21:57.575Z,11.187
2023-01-01T23:24:57.286Z,11.187
2023-01-01T23:27:57.712Z,10.75
2023-01-01T23:30:57.384Z,10.75
2023-01-01T23:33:56.716Z,10.687
2023-01-01T23:36:56.964Z,10.937
2023-01-01T23:39:57.494Z,10.875
2023-01-01T23:42:57.714Z,10.812
2023-01-01T23:45:57.017Z,11.687
2023-01-01T23:48:56.979Z,12.0
2023-01-01T23:51:57.178Z,11.5
2023-01-01T23:54:57.229Z,11.25
2023-01-01T23:57:57.067Z,11.562
